createdAt,value
2017-07-10T00:01:00.790Z,24.1
2017-07-10T00:02:05.983Z,24.1
2017-07-10T00:03:11.300Z,24.2
2017-07-10T00:04:16.326Z,24.2
2017-07-10T00:05:22.085Z,24.1
2017-07-10T00:06:29.317Z,24.1
2017-07-10T00:07:34.553Z,24.1
2017-07-10T00:08:42.204Z,24.1
2017-07-10T00:09:48.529Z,24.1
2017-07-10T00:10:56.117Z,24.1
2017-07-10T00:12:02.028Z,24.1
2017-07-10T00:13:09.357Z,24.1
2017-07-10T00:14:14.624Z,24.1
2017-07-10T00:15:20.138Z,24.1
2017-07-10T00:16:26.048Z,24.0
2017-07-10T00:17:32.350Z,24.0
2017-07-10T00:18:37.804Z,24.0
2017-07-10T00:19:44.183Z,24.0
2017-07-10T00:20:50.977Z,24.0
2017-07-10T00:21:57.183Z,24.0
2017-07-10T00:23:01.677Z,24.0
2017-07-10T00:24:08.828Z,24.0
2017-07-10T00:25:12.883Z,23.9
2017-07-10T00:26:18.210Z,23.9
2017-07-10T00:27:22.688Z,23.9
2017-07-10T00:28:29.535Z,23.9
2017-07-10T00:29:34.619Z,23.9
2017-07-10T00:30:40.847Z,23.9
2017-07-10T00:31:47.843Z,23.9
2017-07-10T00:32:53.473Z,23.9
2017-07-10T00:34:00.346Z,23.9
2017-07-10T00:35:04.856Z,23.9
2017-07-10T00:36:11.584Z,23.9
2017-07-10T00:37:20.242Z,23.9
2017-07-10T00:38:27.353Z,23.9
2017-07-10T00:39:33.358Z,23.8
2017-07-10T00:40:38.878Z,23.8
2017-07-10T00:41:44.864Z,23.8
2017-07-10T00:42:53.155Z,23.8
2017-07-10T00:43:59.063Z,23.8
2017-07-10T00:45:05.866Z,23.9
2017-07-10T00:46:11.808Z,23.8
2017-07-10T00:47:18.885Z,23.8
2017-07-10T00:48:24.239Z,23.8
2017-07-10T00:49:28.766Z,23.8
2017-07-10T00:50:33.891Z,23.8
2017-07-10T00:51:39.564Z,23.8
2017-07-10T00:52:45.333Z,23.9
2017-07-10T00:53:50.526Z,23.9
2017-07-10T00:54:55.941Z,23.8
2017-07-10T00:56:02.071Z,23.8
2017-07-10T00:57:08.548Z,23.8
2017-07-10T00:58:15.136Z,23.8
2017-07-10T00:59:22.395Z,23.8
2017-07-10T01:00:29.028Z,23.8
2017-07-10T01:01:35.893Z,23.8
2017-07-10T01:02:38.990Z,23.8
2017-07-10T01:03:45.745Z,23.8
2017-07-10T01:04:51.071Z,23.8
2017-07-10T01:05:57.938Z,23.8
2017-07-10T01:07:03.506Z,23.8
2017-07-10T01:08:11.245Z,23.8
2017-07-10T01:09:16.823Z,23.8
2017-07-10T01:10:22.712Z,23.8
2017-07-10T01:11:28.113Z,23.8
2017-07-10T01:12:35.675Z,23.8
2017-07-10T01:13:40.963Z,23.8
2017-07-10T01:14:46.916Z,23.8
2017-07-10T01:15:52.173Z,23.7
2017-07-10T01:16:58.923Z,23.7
2017-07-10T01:18:02.687Z,23.7
2017-07-10T01:19:07.937Z,23.7
2017-07-10T01:20:14.571Z,23.7
2017-07-10T01:21:20.477Z,23.7
2017-07-10T01:22:26.848Z,23.7
2017-07-10T01:23:33.496Z,23.7
2017-07-10T01:24:41.436Z,23.7
2017-07-10T01:25:48.215Z,23.7
2017-07-10T01:26:53.717Z,23.6
2017-07-10T01:28:00.940Z,23.6
2017-07-10T01:29:04.964Z,23.6
2017-07-10T01:30:10.440Z,23.6
2017-07-10T01:31:16.443Z,23.6
2017-07-10T01:32:22.533Z,23.6
2017-07-10T01:33:31.060Z,23.6
2017-07-10T01:34:38.593Z,23.6
2017-07-10T01:35:44.676Z,23.6
2017-07-10T01:36:50.521Z,23.6
2017-07-10T01:37:55.291Z,23.6
2017-07-10T01:39:02.793Z,23.6
2017-07-10T01:40:08.720Z,23.6
2017-07-10T01:41:14.959Z,23.6
2017-07-10T01:42:20.073Z,23.6
2017-07-10T01:43:27.345Z,23.6
2017-07-10T01:44:33.209Z,23.6
2017-07-10T01:45:39.967Z,23.6
2017-07-10T01:46:44.555Z,23.5
2017-07-10T01:47:51.470Z,23.5
2017-07-10T01:48:56.479Z,23.5
2017-07-10T01:50:03.186Z,23.5
2017-07-10T01:51:09.868Z,23.5
2017-07-10T01:52:15.081Z,23.6
2017-07-10T01:53:20.836Z,23.6
2017-07-10T01:54:27.785Z,23.6
2017-07-10T01:55:35.143Z,23.6
2017-07-10T01:56:41.634Z,23.6
2017-07-10T01:57:48.864Z,23.6
2017-07-10T01:58:55.491Z,23.5
2017-07-10T02:00:00.843Z,23.5
2017-07-10T02:01:10.546Z,23.5
2017-07-10T02:02:15.707Z,23.5
2017-07-10T02:03:22.207Z,23.5
2017-07-10T02:04:27.351Z,23.5
2017-07-10T02:05:33.582Z,23.5
2017-07-10T02:06:38.875Z,23.5
2017-07-10T02:07:46.146Z,23.5
2017-07-10T02:08:53.701Z,23.5
2017-07-10T02:09:59.270Z,23.5
2017-07-10T02:11:04.412Z,23.5
2017-07-10T02:12:09.523Z,23.5
2017-07-10T02:13:16.545Z,23.5
2017-07-10T02:14:23.189Z,23.5
2017-07-10T02:15:28.425Z,23.5
2017-07-10T02:16:33.518Z,23.5
2017-07-10T02:17:38.528Z,23.5
2017-07-10T02:18:43.744Z,23.5
2017-07-10T02:19:50.272Z,23.5
2017-07-10T02:20:56.027Z,23.4
2017-07-10T02:22:00.461Z,23.4
2017-07-10T02:23:06.432Z,23.4
2017-07-10T02:24:13.450Z,23.4
2017-07-10T02:25:20.831Z,23.4
2017-07-10T02:26:25.842Z,23.4
2017-07-10T02:27:32.808Z,23.4
2017-07-10T02:28:37.466Z,23.4
2017-07-10T02:29:45.121Z,23.4
2017-07-10T02:30:52.045Z,23.4
2017-07-10T02:31:58.239Z,23.4
2017-07-10T02:33:05.053Z,23.4
2017-07-10T02:34:12.211Z,23.4
2017-07-10T02:35:19.767Z,23.3
2017-07-10T02:36:28.380Z,23.3
2017-07-10T02:37:34.486Z,23.3
2017-07-10T02:38:40.112Z,23.3
2017-07-10T02:39:48.214Z,23.3
2017-07-10T02:40:55.930Z,23.3
2017-07-10T02:42:02.586Z,23.3
2017-07-10T02:43:08.673Z,23.3
2017-07-10T02:44:15.532Z,23.3
2017-07-10T02:45:20.180Z,23.3
2017-07-10T02:46:27.050Z,23.3
2017-07-10T02:47:32.577Z,23.3
2017-07-10T02:48:38.272Z,23.3
2017-07-10T02:49:45.704Z,23.3
2017-07-10T02:50:52.275Z,23.3
2017-07-10T02:51:58.593Z,23.3
2017-07-10T02:53:04.498Z,23.3
2017-07-10T02:54:10.815Z,23.3
2017-07-10T02:55:19.595Z,23.3
2017-07-10T02:56:25.548Z,23.3
2017-07-10T02:57:30.869Z,23.3
2017-07-10T02:58:38.100Z,23.2
2017-07-10T02:59:43.578Z,23.2
2017-07-10T03:00:50.364Z,23.2
2017-07-10T03:01:56.599Z,23.2
2017-07-10T03:03:01.298Z,23.2
2017-07-10T03:04:07.601Z,23.2
2017-07-10T03:05:11.835Z,23.2
2017-07-10T03:06:18.605Z,23.2
2017-07-10T03:07:22.961Z,23.2
2017-07-10T03:08:29.332Z,23.2
2017-07-10T03:09:36.091Z,23.2
2017-07-10T03:10:43.877Z,23.2
2017-07-10T03:11:49.944Z,23.2
2017-07-10T03:12:55.727Z,23.2
2017-07-10T03:14:01.448Z,23.2
2017-07-10T03:15:07.306Z,23.1
2017-07-10T03:16:14.368Z,23.1
2017-07-10T03:17:21.386Z,23.1
2017-07-10T03:18:27.124Z,23.1
2017-07-10T03:19:32.974Z,23.2
2017-07-10T03:20:39.244Z,23.2
2017-07-10T03:21:44.786Z,23.2
2017-07-10T03:22:52.637Z,23.1
2017-07-10T03:23:56.250Z,23.1
2017-07-10T03:25:03.006Z,23.1
2017-07-10T03:26:08.353Z,23.2
2017-07-10T03:27:14.148Z,23.2
2017-07-10T03:28:18.318Z,23.2
2017-07-10T03:29:24.701Z,23.1
2017-07-10T03:30:28.276Z,23.1
2017-07-10T03:31:34.302Z,23.1
2017-07-10T03:32:40.359Z,23.1
2017-07-10T03:33:48.300Z,23.1
2017-07-10T03:34:54.282Z,23.1
2017-07-10T03:35:59.374Z,23.1
2017-07-10T03:37:06.181Z,23.1
2017-07-10T03:38:13.960Z,23.1
2017-07-10T03:39:19.809Z,23.1
2017-07-10T03:40:26.675Z,23.1
2017-07-10T03:41:33.554Z,23.1
2017-07-10T03:42:40.165Z,23.1
2017-07-10T03:43:45.155Z,23.1
2017-07-10T03:44:53.759Z,23.1
2017-07-10T03:45:59.727Z,23.1
2017-07-10T03:47:03.734Z,23.1
2017-07-10T03:48:16.365Z,23.1
2017-07-10T03:49:22.676Z,23.1
2017-07-10T03:50:27.867Z,23.1
2017-07-10T03:51:34.451Z,23.1
2017-07-10T03:52:40.129Z,23.0
2017-07-10T03:53:46.810Z,23.1
2017-07-10T03:54:53.075Z,23.0
2017-07-10T03:56:02.193Z,23.1
2017-07-10T03:57:07.299Z,23.1
2017-07-10T03:58:13.490Z,23.1
2017-07-10T03:59:18.370Z,23.1
2017-07-10T04:00:23.714Z,23.1
2017-07-10T04:01:29.509Z,23.1
2017-07-10T04:02:35.338Z,23.1
2017-07-10T04:03:41.928Z,23.1
2017-07-10T04:04:48.063Z,23.1
2017-07-10T04:05:52.869Z,23.1
2017-07-10T04:06:58.780Z,23.1
2017-07-10T04:08:05.707Z,23.1
2017-07-10T04:09:10.333Z,23.1
2017-07-10T04:10:19.217Z,23.1
2017-07-10T04:11:23.583Z,23.0
2017-07-10T04:12:30.214Z,23.0
2017-07-10T04:13:36.546Z,23.0
2017-07-10T04:14:41.721Z,23.1
2017-07-10T04:15:47.043Z,23.1
2017-07-10T04:16:52.722Z,23.1
2017-07-10T04:17:57.660Z,23.1
2017-07-10T04:19:05.008Z,23.1
2017-07-10T04:20:10.805Z,23.1
2017-07-10T04:21:17.752Z,23.1
2017-07-10T04:22:23.250Z,23.1
2017-07-10T04:23:29.042Z,23.1
2017-07-10T04:24:36.355Z,23.1
2017-07-10T04:25:41.625Z,23.1
2017-07-10T04:26:49.339Z,23.1
2017-07-10T04:27:57.002Z,23.1
2017-07-10T04:29:02.067Z,23.1
2017-07-10T04:30:12.621Z,23.1
2017-07-10T04:31:18.534Z,23.1
2017-07-10T04:32:25.748Z,23.1
2017-07-10T04:33:31.172Z,23.1
2017-07-10T04:34:36.398Z,23.1
2017-07-10T04:35:42.791Z,23.1
2017-07-10T04:36:47.469Z,23.2
2017-07-10T04:37:54.630Z,23.1
2017-07-10T04:39:00.760Z,23.1
2017-07-10T04:40:06.742Z,23.1
2017-07-10T04:41:11.709Z,23.1
2017-07-10T04:42:18.266Z,23.1
2017-07-10T04:43:25.923Z,23.1
2017-07-10T04:44:31.556Z,23.1
2017-07-10T04:45:37.648Z,23.1
2017-07-10T04:46:43.668Z,23.1
2017-07-10T04:47:51.410Z,23.1
2017-07-10T04:48:57.276Z,23.1
2017-07-10T04:50:01.192Z,23.1
2017-07-10T04:51:08.786Z,23.1
2017-07-10T04:52:14.646Z,23.2
2017-07-10T04:53:19.124Z,23.2
2017-07-10T04:54:27.416Z,23.2
2017-07-10T04:55:32.927Z,23.2
2017-07-10T04:56:38.791Z,23.2
2017-07-10T04:57:44.058Z,23.2
2017-07-10T04:58:49.337Z,23.2
2017-07-10T04:59:54.942Z,23.2
2017-07-10T05:01:02.379Z,23.2
2017-07-10T05:02:09.433Z,23.2
2017-07-10T05:03:16.106Z,23.2
2017-07-10T05:04:22.168Z,23.2
2017-07-10T05:05:29.371Z,23.2
2017-07-10T05:06:33.170Z,23.2
2017-07-10T05:07:39.860Z,23.2
2017-07-10T05:08:48.828Z,23.2
2017-07-10T05:09:54.070Z,23.2
2017-07-10T05:10:58.512Z,23.2
2017-07-10T05:12:03.707Z,23.2
2017-07-10T05:13:08.911Z,23.2
2017-07-10T05:14:15.154Z,23.2
2017-07-10T05:15:20.387Z,23.2
2017-07-10T05:16:27.481Z,23.2
2017-07-10T05:17:34.143Z,23.2
2017-07-10T05:18:41.849Z,23.2
2017-07-10T05:19:48.044Z,23.2
2017-07-10T05:20:53.421Z,23.2
2017-07-10T05:21:57.829Z,23.2
2017-07-10T05:23:05.245Z,23.2
2017-07-10T05:24:11.368Z,23.2
2017-07-10T05:25:17.378Z,23.2
2017-07-10T05:26:24.143Z,23.2
2017-07-10T05:27:30.648Z,23.2
2017-07-10T05:28:36.881Z,23.2
2017-07-10T05:29:41.613Z,23.3
2017-07-10T05:30:47.346Z,23.3
2017-07-10T05:31:53.147Z,23.3
2017-07-10T05:33:00.452Z,23.3
2017-07-10T05:34:08.361Z,23.3
2017-07-10T05:35:12.149Z,23.3
2017-07-10T05:36:17.954Z,23.3
2017-07-10T05:37:24.757Z,23.3
2017-07-10T05:38:30.234Z,23.3
2017-07-10T05:39:36.076Z,23.4
2017-07-10T05:40:42.862Z,23.3
2017-07-10T05:41:46.895Z,23.4
2017-07-10T05:42:54.976Z,23.4
2017-07-10T05:44:00.868Z,23.4
2017-07-10T05:45:05.236Z,23.3
2017-07-10T05:46:12.678Z,23.3
2017-07-10T05:47:17.915Z,23.4
2017-07-10T05:48:22.901Z,23.4
2017-07-10T05:49:28.406Z,23.4
2017-07-10T05:50:33.271Z,23.4
2017-07-10T05:51:39.269Z,23.4
2017-07-10T05:52:46.915Z,23.4
2017-07-10T05:53:51.284Z,23.4
2017-07-10T05:54:57.778Z,23.4
2017-07-10T05:56:03.896Z,23.4
2017-07-10T05:57:09.189Z,23.5
2017-07-10T05:58:13.446Z,23.4
2017-07-10T05:59:18.578Z,23.5
2017-07-10T06:00:25.396Z,23.5
2017-07-10T06:01:31.709Z,23.5
2017-07-10T06:02:37.899Z,23.5
2017-07-10T06:03:44.222Z,23.5
2017-07-10T06:04:50.904Z,23.5
2017-07-10T06:05:55.519Z,23.5
2017-07-10T06:07:00.488Z,23.5
2017-07-10T06:08:06.410Z,23.5
2017-07-10T06:09:13.411Z,23.5
2017-07-10T06:10:17.230Z,23.5
2017-07-10T06:11:22.333Z,23.5
2017-07-10T06:12:27.732Z,23.6
2017-07-10T06:13:33.363Z,23.6
2017-07-10T06:14:38.013Z,23.6
2017-07-10T06:15:43.925Z,23.5
2017-07-10T06:16:49.423Z,23.6
2017-07-10T06:17:56.093Z,23.6
2017-07-10T06:19:01.148Z,23.6
2017-07-10T06:20:06.162Z,23.6
2017-07-10T06:21:11.046Z,23.7
2017-07-10T06:22:17.933Z,23.6
2017-07-10T06:23:21.935Z,23.7
2017-07-10T06:24:26.497Z,23.7
2017-07-10T06:25:31.346Z,23.7
2017-07-10T06:26:38.445Z,23.6
2017-07-10T06:27:42.942Z,23.6
2017-07-10T06:28:47.573Z,23.7
2017-07-10T06:29:52.339Z,23.7
2017-07-10T06:30:58.502Z,23.7
2017-07-10T06:32:04.452Z,23.7
2017-07-10T06:33:10.775Z,23.8
2017-07-10T06:34:17.454Z,23.7
2017-07-10T06:35:22.457Z,23.8
2017-07-10T06:36:27.877Z,23.8
2017-07-10T06:37:34.467Z,23.8
2017-07-10T06:38:39.465Z,23.8
2017-07-10T06:39:44.271Z,23.8
2017-07-10T06:40:51.464Z,23.8
2017-07-10T06:41:58.201Z,23.8
2017-07-10T06:43:04.721Z,23.8
2017-07-10T06:44:11.450Z,23.8
2017-07-10T06:45:16.576Z,23.8
2017-07-10T06:46:24.122Z,23.8
2017-07-10T06:47:30.975Z,23.8
2017-07-10T06:48:36.981Z,23.8
2017-07-10T06:49:44.480Z,23.8
2017-07-10T06:50:48.786Z,23.9
2017-07-10T06:51:55.840Z,23.9
2017-07-10T06:53:03.487Z,23.8
2017-07-10T06:54:08.018Z,23.9
2017-07-10T06:55:14.909Z,23.9
2017-07-10T06:56:20.991Z,23.9
2017-07-10T06:57:26.993Z,23.9
2017-07-10T06:58:33.028Z,24.0
2017-07-10T06:59:39.787Z,24.0
2017-07-10T07:00:45.933Z,24.0
2017-07-10T07:01:52.095Z,24.0
2017-07-10T07:02:57.511Z,24.0
2017-07-10T07:04:03.091Z,24.0
2017-07-10T07:05:08.939Z,24.0
2017-07-10T07:06:14.181Z,24.0
2017-07-10T07:07:20.498Z,24.0
2017-07-10T07:08:25.516Z,24.0
2017-07-10T07:09:33.520Z,24.0
2017-07-10T07:10:35.983Z,24.0
2017-07-10T07:11:42.035Z,24.0
2017-07-10T07:12:48.765Z,24.0
2017-07-10T07:13:53.822Z,24.0
2017-07-10T07:14:58.993Z,24.0
2017-07-10T07:16:05.782Z,24.0
2017-07-10T07:17:11.043Z,24.1
2017-07-10T07:18:16.367Z,24.0
2017-07-10T07:19:22.366Z,24.0
2017-07-10T07:20:29.536Z,24.0
2017-07-10T07:21:35.442Z,24.1
2017-07-10T07:22:43.909Z,24.1
2017-07-10T07:23:50.826Z,24.1
2017-07-10T07:24:56.351Z,24.1
2017-07-10T07:26:03.061Z,24.1
2017-07-10T07:27:09.170Z,24.1
2017-07-10T07:28:17.068Z,24.1
2017-07-10T07:29:24.051Z,24.0
2017-07-10T07:30:29.201Z,24.0
2017-07-10T07:31:34.797Z,24.0
2017-07-10T07:32:41.873Z,24.1
2017-07-10T07:33:47.713Z,24.1
2017-07-10T07:34:52.799Z,24.0
2017-07-10T07:35:58.178Z,24.1
2017-07-10T07:37:03.403Z,24.1
2017-07-10T07:38:10.860Z,24.1
2017-07-10T07:39:17.257Z,24.1
2017-07-10T07:40:23.567Z,24.1
2017-07-10T07:41:29.703Z,24.1
2017-07-10T07:42:35.854Z,24.1
2017-07-10T07:43:42.869Z,24.1
2017-07-10T07:44:51.185Z,24.0
2017-07-10T07:45:56.938Z,24.0
2017-07-10T07:47:02.770Z,24.1
2017-07-10T07:48:07.931Z,24.1
2017-07-10T07:49:15.175Z,24.1
2017-07-10T07:50:20.646Z,24.1
2017-07-10T07:51:27.281Z,24.1
2017-07-10T07:52:34.048Z,24.1
2017-07-10T07:53:40.056Z,24.0
2017-07-10T07:54:45.610Z,24.0
2017-07-10T07:55:51.766Z,24.0
2017-07-10T07:56:59.297Z,24.1
2017-07-10T07:58:04.075Z,24.1
2017-07-10T07:59:10.284Z,24.1
2017-07-10T08:00:16.736Z,24.1
2017-07-10T08:01:22.444Z,24.1
2017-07-10T08:02:27.586Z,24.1
2017-07-10T08:03:32.720Z,24.1
2017-07-10T08:04:39.050Z,24.2
2017-07-10T08:05:45.754Z,24.2
2017-07-10T08:06:54.610Z,24.2
2017-07-10T08:08:01.378Z,24.2
2017-07-10T08:09:08.615Z,24.2
2017-07-10T08:10:14.022Z,24.2
2017-07-10T08:11:21.836Z,24.2
2017-07-10T08:12:27.556Z,24.2
2017-07-10T08:13:34.134Z,24.2
2017-07-10T08:14:41.625Z,24.3
2017-07-10T08:15:45.676Z,24.3
2017-07-10T08:16:52.636Z,24.3
2017-07-10T08:17:56.829Z,24.3
2017-07-10T08:19:01.529Z,24.3
2017-07-10T08:20:09.749Z,24.4
2017-07-10T08:21:14.117Z,24.4
2017-07-10T08:22:20.477Z,24.4
2017-07-10T08:23:26.637Z,24.4
2017-07-10T08:24:33.140Z,24.4
2017-07-10T08:25:38.172Z,24.4
2017-07-10T08:26:44.749Z,24.4
2017-07-10T08:27:50.736Z,24.4
2017-07-10T08:28:56.757Z,24.5
2017-07-10T08:30:02.176Z,24.5
2017-07-10T08:31:07.429Z,24.5
2017-07-10T08:32:13.209Z,24.5
2017-07-10T08:33:19.523Z,24.6
2017-07-10T08:34:27.402Z,24.6
2017-07-10T08:35:34.161Z,24.6
2017-07-10T08:36:40.522Z,24.6
2017-07-10T08:37:48.703Z,24.6
2017-07-10T08:38:53.871Z,24.5
2017-07-10T08:40:00.461Z,24.5
2017-07-10T08:41:05.593Z,24.5
2017-07-10T08:42:11.681Z,24.6
2017-07-10T08:43:16.115Z,24.5
2017-07-10T08:44:21.578Z,24.6
2017-07-10T08:45:26.798Z,24.6
2017-07-10T08:46:32.679Z,24.6
2017-07-10T08:47:36.679Z,24.6
2017-07-10T08:48:42.806Z,24.6
2017-07-10T08:49:48.714Z,24.6
2017-07-10T08:50:55.915Z,24.6
2017-07-10T08:52:02.188Z,24.6
2017-07-10T08:53:08.049Z,24.6
2017-07-10T08:54:14.025Z,24.7
2017-07-10T08:55:20.020Z,24.6
2017-07-10T08:56:25.369Z,24.6
2017-07-10T08:57:33.697Z,24.6
2017-07-10T08:58:38.278Z,24.6
2017-07-10T08:59:42.874Z,24.6
2017-07-10T09:00:49.052Z,24.6
2017-07-10T09:01:56.422Z,24.6
2017-07-10T09:03:03.917Z,24.7
2017-07-10T09:04:12.208Z,24.7
2017-07-10T09:05:18.370Z,24.7
2017-07-10T09:06:23.944Z,24.7
2017-07-10T09:07:30.214Z,24.7
2017-07-10T09:08:35.395Z,24.7
2017-07-10T09:09:40.532Z,24.6
2017-07-10T09:10:46.906Z,24.7
2017-07-10T09:11:54.723Z,24.7
2017-07-10T09:13:01.648Z,24.7
2017-07-10T09:14:07.536Z,24.7
2017-07-10T09:15:13.991Z,24.7
2017-07-10T09:16:20.673Z,24.7
2017-07-10T09:17:25.304Z,24.7
2017-07-10T09:18:31.439Z,24.8
2017-07-10T09:19:36.523Z,24.8
2017-07-10T09:20:42.571Z,24.7
2017-07-10T09:21:49.383Z,24.7
2017-07-10T09:22:57.363Z,24.7
2017-07-10T09:24:06.245Z,24.7
2017-07-10T09:25:09.552Z,24.8
2017-07-10T09:26:15.724Z,24.8
2017-07-10T09:27:20.861Z,24.8
2017-07-10T09:28:27.742Z,24.9
2017-07-10T09:29:35.037Z,25.0
2017-07-10T09:30:41.752Z,24.9
2017-07-10T09:31:46.942Z,24.9
2017-07-10T09:32:52.758Z,24.9
2017-07-10T09:33:59.261Z,24.9
2017-07-10T09:35:05.298Z,24.9
2017-07-10T09:36:12.932Z,24.9
2017-07-10T09:37:18.917Z,24.9
2017-07-10T09:38:27.266Z,24.9
2017-07-10T09:39:35.269Z,24.9
2017-07-10T09:40:40.895Z,24.9
2017-07-10T09:41:46.679Z,25.0
2017-07-10T09:42:53.008Z,25.0
2017-07-10T09:43:58.550Z,25.0
2017-07-10T09:45:05.844Z,25.0
2017-07-10T09:46:12.095Z,25.0
2017-07-10T09:47:18.669Z,25.0
2017-07-10T09:48:23.843Z,25.0
2017-07-10T09:49:31.161Z,25.1
2017-07-10T09:50:37.944Z,25.1
2017-07-10T09:51:45.889Z,25.1
2017-07-10T09:52:51.722Z,25.1
2017-07-10T09:53:57.876Z,25.1
2017-07-10T09:55:04.458Z,25.1
2017-07-10T09:56:09.533Z,25.1
2017-07-10T09:57:14.905Z,25.1
2017-07-10T09:58:20.904Z,25.1
2017-07-10T09:59:27.300Z,25.1
2017-07-10T10:00:32.155Z,25.1
2017-07-10T10:01:38.292Z,25.1
2017-07-10T10:02:45.808Z,25.2
2017-07-10T10:03:52.875Z,25.2
2017-07-10T10:04:59.320Z,25.2
2017-07-10T10:06:05.351Z,25.2
2017-07-10T10:07:12.008Z,25.2
2017-07-10T10:08:18.325Z,25.2
2017-07-10T10:09:23.400Z,25.2
2017-07-10T10:10:30.488Z,25.2
2017-07-10T10:11:35.482Z,25.2
2017-07-10T10:12:41.988Z,25.3
2017-07-10T10:13:47.849Z,25.3
2017-07-10T10:14:51.639Z,25.3
2017-07-10T10:15:58.180Z,25.3
2017-07-10T10:17:04.001Z,25.3
2017-07-10T10:18:11.096Z,25.3
2017-07-10T10:19:17.833Z,25.4
2017-07-10T10:20:23.343Z,25.4
2017-07-10T10:21:29.365Z,25.4
2017-07-10T10:22:36.075Z,25.4
2017-07-10T10:23:43.146Z,25.4
2017-07-10T10:24:48.583Z,25.4
2017-07-10T10:25:54.461Z,25.4
2017-07-10T10:26:59.386Z,25.4
2017-07-10T10:28:05.472Z,25.4
2017-07-10T10:29:12.294Z,25.4
2017-07-10T10:30:18.906Z,25.3
2017-07-10T10:31:24.652Z,25.3
2017-07-10T10:32:29.659Z,25.4
2017-07-10T10:33:34.755Z,25.3
2017-07-10T10:34:39.368Z,25.3
2017-07-10T10:35:43.862Z,25.3
2017-07-10T10:36:51.961Z,25.3
2017-07-10T10:37:58.669Z,25.3
2017-07-10T10:39:05.911Z,25.3
2017-07-10T10:40:11.725Z,25.3
2017-07-10T10:41:17.580Z,25.3
2017-07-10T10:42:23.195Z,25.4
2017-07-10T10:43:27.977Z,25.4
2017-07-10T10:44:33.109Z,25.4
2017-07-10T10:45:39.314Z,25.4
2017-07-10T10:46:46.122Z,25.4
2017-07-10T10:47:54.158Z,25.5
2017-07-10T10:49:00.612Z,25.5
2017-07-10T10:50:09.012Z,25.5
2017-07-10T10:51:14.290Z,25.5
2017-07-10T10:52:20.227Z,25.5
2017-07-10T10:53:26.392Z,25.6
2017-07-10T10:54:32.409Z,25.5
2017-07-10T10:55:38.256Z,25.5
2017-07-10T10:56:45.414Z,25.5
2017-07-10T10:57:52.903Z,25.5
2017-07-10T10:58:57.931Z,25.6
2017-07-10T11:00:05.912Z,25.5
2017-07-10T11:01:12.179Z,25.5
2017-07-10T11:02:17.043Z,25.6
2017-07-10T11:03:23.564Z,25.5
2017-07-10T11:04:28.946Z,25.5
2017-07-10T11:05:35.950Z,25.5
2017-07-10T11:06:40.796Z,25.5
2017-07-10T11:07:47.376Z,25.6
2017-07-10T11:08:52.915Z,25.5
2017-07-10T11:09:58.603Z,25.5
2017-07-10T11:11:05.605Z,25.5
2017-07-10T11:12:11.246Z,25.5
2017-07-10T11:13:16.400Z,25.5
2017-07-10T11:14:22.582Z,25.6
2017-07-10T11:15:28.407Z,25.6
2017-07-10T11:16:35.565Z,25.5
2017-07-10T11:17:40.727Z,25.5
2017-07-10T11:18:45.555Z,25.6
2017-07-10T11:19:52.966Z,25.6
2017-07-10T11:20:57.949Z,25.6
2017-07-10T11:22:04.556Z,25.6
2017-07-10T11:23:09.304Z,25.6
2017-07-10T11:24:15.710Z,25.6
2017-07-10T11:25:21.686Z,25.7
2017-07-10T11:26:28.447Z,25.7
2017-07-10T11:27:32.888Z,25.7
2017-07-10T11:28:39.734Z,25.7
2017-07-10T11:29:45.030Z,25.8
2017-07-10T11:30:50.960Z,25.7
2017-07-10T11:31:55.315Z,25.8
2017-07-10T11:32:59.849Z,25.8
2017-07-10T11:34:06.290Z,25.8
2017-07-10T11:35:11.578Z,25.8
2017-07-10T11:36:19.971Z,25.8
2017-07-10T11:37:26.854Z,25.7
2017-07-10T11:38:36.002Z,25.7
2017-07-10T11:39:41.752Z,25.7
2017-07-10T11:40:48.146Z,25.6
2017-07-10T11:41:53.987Z,25.6
2017-07-10T11:43:00.106Z,25.5
2017-07-10T11:44:07.478Z,25.6
2017-07-10T11:45:12.168Z,25.5
2017-07-10T11:46:18.005Z,25.5
2017-07-10T11:47:23.985Z,25.4
2017-07-10T11:48:29.486Z,25.5
2017-07-10T11:49:33.966Z,25.5
2017-07-10T11:50:41.489Z,25.5
2017-07-10T11:51:47.870Z,25.4
2017-07-10T11:52:54.994Z,25.4
2017-07-10T11:54:02.328Z,25.5
2017-07-10T11:55:08.641Z,25.5
2017-07-10T11:56:13.912Z,25.4
2017-07-10T11:57:22.510Z,25.4
2017-07-10T11:58:27.648Z,25.4
2017-07-10T11:59:33.660Z,25.4
2017-07-10T12:00:38.905Z,25.4
2017-07-10T12:01:45.325Z,25.4
2017-07-10T12:02:50.590Z,25.3
2017-07-10T12:03:55.859Z,25.3
2017-07-10T12:05:02.938Z,25.3
2017-07-10T12:06:08.750Z,25.3
2017-07-10T12:07:16.018Z,25.2
2017-07-10T12:08:21.297Z,25.2
2017-07-10T12:09:26.678Z,25.2
2017-07-10T12:10:32.504Z,25.2
2017-07-10T12:11:38.913Z,25.2
2017-07-10T12:12:46.406Z,25.2
2017-07-10T12:13:53.554Z,25.2
2017-07-10T12:14:57.268Z,25.2
2017-07-10T12:16:06.533Z,25.1
2017-07-10T12:17:12.718Z,25.1
2017-07-10T12:18:18.711Z,25.1
2017-07-10T12:19:25.902Z,25.1
2017-07-10T12:20:32.967Z,25.1
2017-07-10T12:21:38.633Z,25.1
2017-07-10T12:22:45.692Z,25.1
2017-07-10T12:23:51.989Z,25.1
2017-07-10T12:24:58.169Z,25.1
2017-07-10T12:26:05.280Z,25.2
2017-07-10T12:27:10.391Z,25.3
2017-07-10T12:28:16.555Z,25.4
2017-07-10T12:29:22.423Z,25.4
2017-07-10T12:30:31.060Z,25.4
2017-07-10T12:31:38.248Z,25.3
2017-07-10T12:32:44.455Z,25.3
2017-07-10T12:33:49.380Z,25.2
2017-07-10T12:34:55.825Z,25.1
2017-07-10T12:36:02.909Z,25.1
2017-07-10T12:37:10.698Z,25.1
2017-07-10T12:38:16.705Z,25.1
2017-07-10T12:39:21.291Z,25.1
2017-07-10T12:40:26.656Z,25.1
2017-07-10T12:41:32.581Z,25.0
2017-07-10T12:42:39.443Z,25.0
2017-07-10T12:43:45.586Z,25.0
2017-07-10T12:44:50.729Z,25.0
2017-07-10T12:45:57.322Z,25.0
2017-07-10T12:47:03.804Z,25.0
2017-07-10T12:48:09.013Z,25.0
2017-07-10T12:49:14.868Z,25.1
2017-07-10T12:50:19.790Z,25.1
2017-07-10T12:51:26.601Z,25.0
2017-07-10T12:52:33.788Z,25.0
2017-07-10T12:53:40.985Z,25.0
2017-07-10T12:54:48.449Z,25.0
2017-07-10T12:55:54.329Z,25.0
2017-07-10T12:57:02.087Z,25.0
2017-07-10T12:58:09.116Z,25.1
2017-07-10T12:59:15.824Z,25.1
2017-07-10T13:00:22.752Z,25.1
2017-07-10T13:01:28.492Z,25.1
2017-07-10T13:02:35.613Z,25.1
2017-07-10T13:03:42.118Z,25.1
2017-07-10T13:04:47.117Z,25.1
2017-07-10T13:05:53.257Z,25.1
2017-07-10T13:06:59.770Z,25.2
2017-07-10T13:08:04.971Z,25.3
2017-07-10T13:09:10.193Z,25.4
2017-07-10T13:10:16.263Z,25.3
2017-07-10T13:11:22.508Z,25.4
2017-07-10T13:12:29.028Z,25.4
2017-07-10T13:13:33.532Z,25.4
2017-07-10T13:14:40.235Z,25.4
2017-07-10T13:15:48.153Z,25.4
2017-07-10T13:16:52.637Z,25.4
2017-07-10T13:18:00.218Z,25.4
2017-07-10T13:19:05.091Z,25.4
2017-07-10T13:20:11.068Z,25.5
2017-07-10T13:21:16.674Z,25.5
2017-07-10T13:22:22.915Z,25.5
2017-07-10T13:23:28.328Z,25.5
2017-07-10T13:24:35.141Z,25.5
2017-07-10T13:25:41.153Z,25.6
2017-07-10T13:26:47.654Z,25.6
2017-07-10T13:27:53.396Z,25.6
2017-07-10T13:29:00.157Z,25.6
2017-07-10T13:30:05.304Z,25.6
2017-07-10T13:31:11.527Z,25.6
2017-07-10T13:32:17.548Z,25.6
2017-07-10T13:33:25.487Z,25.6
2017-07-10T13:34:32.412Z,25.6
2017-07-10T13:35:39.672Z,25.6
2017-07-10T13:36:45.170Z,25.6
2017-07-10T13:37:50.145Z,25.6
2017-07-10T13:38:57.414Z,25.5
2017-07-10T13:40:04.360Z,25.5
2017-07-10T13:41:12.187Z,25.6
2017-07-10T13:42:18.682Z,25.7
2017-07-10T13:43:24.118Z,25.7
2017-07-10T13:44:29.553Z,25.8
2017-07-10T13:45:36.271Z,25.8
2017-07-10T13:46:42.464Z,25.9
2017-07-10T13:47:49.304Z,25.9
2017-07-10T13:48:56.084Z,25.9
2017-07-10T13:50:02.834Z,25.9
2017-07-10T13:51:08.201Z,25.8
2017-07-10T13:52:15.362Z,25.8
2017-07-10T13:53:20.395Z,25.8
2017-07-10T13:54:27.805Z,25.8
2017-07-10T13:55:35.945Z,25.8
2017-07-10T13:56:41.122Z,25.8
2017-07-10T13:57:46.996Z,25.7
2017-07-10T13:58:54.208Z,25.7
2017-07-10T13:59:57.829Z,25.7
2017-07-10T14:01:03.713Z,25.8
2017-07-10T14:02:10.521Z,25.8
2017-07-10T14:03:17.583Z,25.9
2017-07-10T14:04:23.765Z,25.9
2017-07-10T14:05:31.220Z,25.9
2017-07-10T14:06:37.728Z,26.0
2017-07-10T14:07:45.348Z,26.0
2017-07-10T14:08:53.379Z,26.0
2017-07-10T14:09:57.728Z,26.1
2017-07-10T14:11:03.914Z,26.1
2017-07-10T14:12:09.212Z,26.2
2017-07-10T14:13:14.660Z,26.2
2017-07-10T14:14:22.240Z,26.2
2017-07-10T14:15:27.522Z,26.1
2017-07-10T14:16:33.789Z,26.2
2017-07-10T14:17:40.221Z,26.2
2017-07-10T14:18:46.901Z,26.2
2017-07-10T14:19:53.430Z,26.1
2017-07-10T14:20:59.254Z,26.2
2017-07-10T14:22:06.747Z,26.2
2017-07-10T14:23:12.252Z,26.1
2017-07-10T14:24:17.194Z,26.1
2017-07-10T14:25:22.916Z,26.2
2017-07-10T14:26:28.342Z,26.2
2017-07-10T14:27:33.030Z,26.2
2017-07-10T14:28:39.151Z,26.2
2017-07-10T14:29:46.761Z,26.2
2017-07-10T14:30:51.445Z,26.2
2017-07-10T14:31:57.766Z,26.2
2017-07-10T14:33:04.197Z,26.2
2017-07-10T14:34:11.267Z,26.2
2017-07-10T14:35:16.777Z,26.2
2017-07-10T14:36:22.987Z,26.2
2017-07-10T14:37:28.774Z,26.2
2017-07-10T14:38:36.601Z,26.2
2017-07-10T14:39:43.555Z,26.1
2017-07-10T14:40:50.780Z,26.2